Texas City, Illinois
Current Conditions -  °F | °C
As of 9:15 AM on Monday 24 Nov 2014 (Local Time) from KHSB Reporting Station
Overcast Overcast  
Wind Chill: 37°   Ceiling: 3500
Heat Index: 44°   Visibility: 10mi
Dew Point: 36°   Wind: 15mph
Humidity: 73%   Direction: 240°WSW
Pressure: 29.67"   Gusts: NA
Location:  37.8101°N, 88.4411°W
Report Text: KHSB 241515Z AUTO 24013KT 10SM OVC035 07/02 A2967 RMK AO2 T00650020
Loading
Personal Weather Stations






























Interactive Weather Map New forecast layout! Learn more

10-Day Weather Forecast

Advertisements
Track Severe Weather on mobile